sensor_id;sensor_type;location;lat;lon;timestamp;P1;durP1;ratioP1;P2;durP2;ratioP2
54983;SDS011;40884;53.562;9.940;2023-08-08T00:00:57;4.63;;;2.10;;
54983;SDS011;40884;53.562;9.940;2023-08-08T00:01:57;3.47;;;2.10;;
54983;SDS011;40884;53.562;9.940;2023-08-08T00:02:57;5.07;;;2.17;;
54983;SDS011;40884;53.562;9.940;2023-08-08T00:03:57;4.67;;;2.23;;
54983;SDS011;40884;53.562;9.940;2023-08-08T00:04:57;5.03;;;2.27;;
54983;SDS011;40884;53.562;9.940;2023-08-08T00:05:57;6.60;;;1.90;;
54983;SDS011;40884;53.562;9.940;2023-08-08T00:06:58;5.00;;;2.10;;
54983;SDS011;40884;53.562;9.940;2023-08-08T00:07:58;3.93;;;2.10;;
54983;SDS011;40884;53.562;9.940;2023-08-08T00:08:58;5.23;;;2.00;;
54983;SDS011;40884;53.562;9.940;2023-08-08T00:09:58;4.17;;;1.90;;
54983;SDS011;40884;53.562;9.940;2023-08-08T00:10:58;5.30;;;1.90;;
54983;SDS011;40884;53.562;9.940;2023-08-08T00:11:58;3.20;;;2.03;;
54983;SDS011;40884;53.562;9.940;2023-08-08T00:12:58;5.60;;;2.23;;
54983;SDS011;40884;53.562;9.940;2023-08-08T00:13:58;4.27;;;2.13;;
54983;SDS011;40884;53.562;9.940;2023-08-08T00:14:58;6.70;;;2.30;;
54983;SDS011;40884;53.562;9.940;2023-08-08T00:15:59;6.27;;;2.53;;
54983;SDS011;40884;53.562;9.940;2023-08-08T00:16:59;4.03;;;2.13;;
54983;SDS011;40884;53.562;9.940;2023-08-08T00:17:59;5.00;;;2.30;;
54983;SDS011;40884;53.562;9.940;2023-08-08T00:18:59;6.80;;;2.23;;
54983;SDS011;40884;53.562;9.940;2023-08-08T00:19:59;6.77;;;2.43;;
54983;SDS011;40884;53.562;9.940;2023-08-08T00:20:59;6.47;;;2.30;;
54983;SDS011;40884;53.562;9.940;2023-08-08T00:21:59;6.17;;;2.57;;
54983;SDS011;40884;53.562;9.940;2023-08-08T00:23:00;6.77;;;2.20;;
54983;SDS011;40884;53.562;9.940;2023-08-08T00:24:00;5.37;;;2.43;;
54983;SDS011;40884;53.562;9.940;2023-08-08T00:25:00;5.10;;;2.00;;
54983;SDS011;40884;53.562;9.940;2023-08-08T00:26:00;4.63;;;2.50;;
54983;SDS011;40884;53.562;9.940;2023-08-08T00:27:00;6.33;;;2.13;;
54983;SDS011;40884;53.562;9.940;2023-08-08T00:28:00;3.17;;;1.90;;
54983;SDS011;40884;53.562;9.940;2023-08-08T00:29:01;8.03;;;2.70;;
54983;SDS011;40884;53.562;9.940;2023-08-08T00:30:02;5.63;;;2.30;;
54983;SDS011;40884;53.562;9.940;2023-08-08T00:31:02;5.57;;;2.30;;
54983;SDS011;40884;53.562;9.940;2023-08-08T00:32:03;7.77;;;2.30;;
54983;SDS011;40884;53.562;9.940;2023-08-08T00:33:03;5.93;;;2.30;;
54983;SDS011;40884;53.562;9.940;2023-08-08T00:34:03;3.87;;;1.90;;
54983;SDS011;40884;53.562;9.940;2023-08-08T00:35:03;4.67;;;2.50;;
54983;SDS011;40884;53.562;9.940;2023-08-08T00:36:04;4.87;;;2.67;;
54983;SDS011;40884;53.562;9.940;2023-08-08T00:37:04;10.37;;;2.33;;
54983;SDS011;40884;53.562;9.940;2023-08-08T00:38:04;6.07;;;2.20;;
54983;SDS011;40884;53.562;9.940;2023-08-08T00:39:04;4.10;;;2.20;;
54983;SDS011;40884;53.562;9.940;2023-08-08T00:40:04;3.83;;;2.30;;
54983;SDS011;40884;53.562;9.940;2023-08-08T00:41:05;4.27;;;2.33;;
54983;SDS011;40884;53.562;9.940;2023-08-08T00:42:05;5.80;;;2.37;;
54983;SDS011;40884;53.562;9.940;2023-08-08T00:43:05;5.23;;;2.20;;
54983;SDS011;40884;53.562;9.940;2023-08-08T00:44:05;3.03;;;1.97;;
54983;SDS011;40884;53.562;9.940;2023-08-08T00:45:06;4.87;;;2.20;;
54983;SDS011;40884;53.562;9.940;2023-08-08T00:46:06;5.00;;;2.27;;
54983;SDS011;40884;53.562;9.940;2023-08-08T00:47:09;6.13;;;2.53;;
54983;SDS011;40884;53.562;9.940;2023-08-08T00:48:09;6.47;;;2.30;;
54983;SDS011;40884;53.562;9.940;2023-08-08T00:49:10;4.10;;;2.47;;
54983;SDS011;40884;53.562;9.940;2023-08-08T00:50:10;6.20;;;2.23;;
54983;SDS011;40884;53.562;9.940;2023-08-08T00:51:10;5.43;;;2.30;;
54983;SDS011;40884;53.562;9.940;2023-08-08T00:52:11;4.90;;;2.13;;
54983;SDS011;40884;53.562;9.940;2023-08-08T00:53:11;6.70;;;2.40;;
54983;SDS011;40884;53.562;9.940;2023-08-08T00:54:11;4.20;;;2.27;;
54983;SDS011;40884;53.562;9.940;2023-08-08T00:55:11;3.43;;;2.17;;
54983;SDS011;40884;53.562;9.940;2023-08-08T00:56:13;5.73;;;2.83;;
54983;SDS011;40884;53.562;9.940;2023-08-08T00:57:13;5.77;;;2.30;;
54983;SDS011;40884;53.562;9.940;2023-08-08T00:58:13;5.87;;;2.50;;
54983;SDS011;40884;53.562;9.940;2023-08-08T00:59:15;3.83;;;1.83;;
54983;SDS011;40884;53.562;9.940;2023-08-08T01:00:15;4.00;;;2.00;;
54983;SDS011;40884;53.562;9.940;2023-08-08T01:01:16;5.37;;;1.97;;
54983;SDS011;40884;53.562;9.940;2023-08-08T01:02:17;3.90;;;2.10;;
54983;SDS011;40884;53.562;9.940;2023-08-08T01:03:18;2.80;;;1.80;;
54983;SDS011;40884;53.562;9.940;2023-08-08T01:04:18;4.80;;;2.23;;
54983;SDS011;40884;53.562;9.940;2023-08-08T01:05:18;3.83;;;2.53;;
54983;SDS011;40884;53.562;9.940;2023-08-08T01:06:23;5.40;;;2.30;;
54983;SDS011;40884;53.562;9.940;2023-08-08T01:07:36;4.37;;;2.13;;
54983;SDS011;40884;53.562;9.940;2023-08-08T01:08:57;3.17;;;1.90;;
54983;SDS011;40884;53.562;9.940;2023-08-08T01:11:01;8.00;;;2.17;;
54983;SDS011;40884;53.562;9.940;2023-08-08T01:12:01;5.40;;;2.53;;
54983;SDS011;40884;53.562;9.940;2023-08-08T01:13:06;6.47;;;2.37;;
54983;SDS011;40884;53.562;9.940;2023-08-08T01:14:06;5.67;;;2.33;;
54983;SDS011;40884;53.562;9.940;2023-08-08T01:15:07;5.53;;;2.23;;
54983;SDS011;40884;53.562;9.940;2023-08-08T01:16:10;4.83;;;2.17;;
54983;SDS011;40884;53.562;9.940;2023-08-08T01:17:10;7.13;;;2.20;;
54983;SDS011;40884;53.562;9.940;2023-08-08T01:18:11;6.90;;;2.30;;
54983;SDS011;40884;53.562;9.940;2023-08-08T01:19:20;5.20;;;2.13;;
54983;SDS011;40884;53.562;9.940;2023-08-08T01:20:22;4.07;;;2.10;;
54983;SDS011;40884;53.562;9.940;2023-08-08T01:21:25;3.97;;;1.80;;
54983;SDS011;40884;53.562;9.940;2023-08-08T01:22:30;3.83;;;2.23;;
54983;SDS011;40884;53.562;9.940;2023-08-08T01:24:38;5.40;;;2.17;;
54983;SDS011;40884;53.562;9.940;2023-08-08T01:25:39;3.30;;;1.90;;
54983;SDS011;40884;53.562;9.940;2023-08-08T01:26:39;4.30;;;1.50;;
54983;SDS011;40884;53.562;9.940;2023-08-08T01:27:39;5.30;;;2.03;;
54983;SDS011;40884;53.562;9.940;2023-08-08T01:28:41;4.17;;;1.80;;
54983;SDS011;40884;53.562;9.940;2023-08-08T01:29:42;5.03;;;1.83;;
54983;SDS011;40884;53.562;9.940;2023-08-08T01:30:43;4.70;;;1.67;;
54983;SDS011;40884;53.562;9.940;2023-08-08T01:31:43;6.80;;;2.07;;
54983;SDS011;40884;53.562;9.940;2023-08-08T01:32:43;6.53;;;2.10;;
54983;SDS011;40884;53.562;9.940;2023-08-08T01:33:43;3.53;;;1.63;;
54983;SDS011;40884;53.562;9.940;2023-08-08T01:34:43;3.23;;;1.83;;
54983;SDS011;40884;53.562;9.940;2023-08-08T01:35:45;3.10;;;1.43;;
54983;SDS011;40884;53.562;9.940;2023-08-08T01:36:48;4.90;;;1.87;;
54983;SDS011;40884;53.562;9.940;2023-08-08T01:37:50;5.93;;;1.80;;
54983;SDS011;40884;53.562;9.940;2023-08-08T01:38:52;5.63;;;1.80;;
54983;SDS011;40884;53.562;9.940;2023-08-08T01:39:52;5.13;;;1.90;;
54983;SDS011;40884;53.562;9.940;2023-08-08T01:40:53;4.60;;;1.90;;
54983;SDS011;40884;53.562;9.940;2023-08-08T01:41:54;3.07;;;1.67;;
54983;SDS011;40884;53.562;9.940;2023-08-08T01:42:54;3.23;;;1.67;;
54983;SDS011;40884;53.562;9.940;2023-08-08T01:43:55;5.40;;;1.73;;
54983;SDS011;40884;53.562;9.940;2023-08-08T01:44:55;3.47;;;1.60;;
54983;SDS011;40884;53.562;9.940;2023-08-08T01:45:56;3.63;;;1.90;;
54983;SDS011;40884;53.562;9.940;2023-08-08T01:46:57;7.93;;;1.87;;
54983;SDS011;40884;53.562;9.940;2023-08-08T01:47:57;4.50;;;1.90;;
54983;SDS011;40884;53.562;9.940;2023-08-08T01:48:58;4.87;;;1.73;;
54983;SDS011;40884;53.562;9.940;2023-08-08T01:49:58;2.57;;;1.53;;
54983;SDS011;40884;53.562;9.940;2023-08-08T01:50:58;4.07;;;1.97;;
54983;SDS011;40884;53.562;9.940;2023-08-08T01:51:59;4.07;;;1.77;;
54983;SDS011;40884;53.562;9.940;2023-08-08T01:52:59;4.10;;;1.53;;
54983;SDS011;40884;53.562;9.940;2023-08-08T01:53:59;2.70;;;1.90;;
54983;SDS011;40884;53.562;9.940;2023-08-08T01:54:59;3.33;;;1.50;;
54983;SDS011;40884;53.562;9.940;2023-08-08T01:55:59;3.50;;;1.80;;
54983;SDS011;40884;53.562;9.940;2023-08-08T01:56:59;5.77;;;1.70;;
54983;SDS011;40884;53.562;9.940;2023-08-08T01:58:00;4.47;;;2.00;;
54983;SDS011;40884;53.562;9.940;2023-08-08T01:59:00;5.67;;;1.83;;
54983;SDS011;40884;53.562;9.940;2023-08-08T02:00:00;6.13;;;1.87;;
54983;SDS011;40884;53.562;9.940;2023-08-08T02:01:00;4.63;;;1.50;;
54983;SDS011;40884;53.562;9.940;2023-08-08T02:02:01;4.00;;;1.90;;
54983;SDS011;40884;53.562;9.940;2023-08-08T02:03:03;5.33;;;1.57;;
54983;SDS011;40884;53.562;9.940;2023-08-08T02:04:03;7.10;;;1.90;;
54983;SDS011;40884;53.562;9.940;2023-08-08T02:05:03;4.13;;;1.90;;
54983;SDS011;40884;53.562;9.940;2023-08-08T02:06:03;5.57;;;1.77;;
54983;SDS011;40884;53.562;9.940;2023-08-08T02:07:03;2.97;;;1.53;;
54983;SDS011;40884;53.562;9.940;2023-08-08T02:08:05;4.67;;;1.80;;
54983;SDS011;40884;53.562;9.940;2023-08-08T02:09:05;4.43;;;1.60;;
54983;SDS011;40884;53.562;9.940;2023-08-08T02:10:05;4.80;;;1.80;;
54983;SDS011;40884;53.562;9.940;2023-08-08T02:11:05;4.67;;;1.83;;
54983;SDS011;40884;53.562;9.940;2023-08-08T02:12:05;4.97;;;1.60;;
54983;SDS011;40884;53.562;9.940;2023-08-08T02:13:06;4.97;;;1.70;;
54983;SDS011;40884;53.562;9.940;2023-08-08T02:14:06;3.80;;;1.50;;
54983;SDS011;40884;53.562;9.940;2023-08-08T02:15:07;4.00;;;1.60;;
54983;SDS011;40884;53.562;9.940;2023-08-08T02:16:07;3.43;;;1.40;;
54983;SDS011;40884;53.562;9.940;2023-08-08T02:17:07;3.83;;;1.27;;
54983;SDS011;40884;53.562;9.940;2023-08-08T02:18:07;3.10;;;1.30;;
54983;SDS011;40884;53.562;9.940;2023-08-08T02:19:07;4.17;;;1.70;;
54983;SDS011;40884;53.562;9.940;2023-08-08T02:20:08;2.80;;;1.40;;
54983;SDS011;40884;53.562;9.940;2023-08-08T02:21:08;2.30;;;1.10;;
54983;SDS011;40884;53.562;9.940;2023-08-08T02:22:08;4.17;;;1.30;;
54983;SDS011;40884;53.562;9.940;2023-08-08T02:23:09;5.73;;;1.30;;
54983;SDS011;40884;53.562;9.940;2023-08-08T02:24:09;5.13;;;1.40;;
54983;SDS011;40884;53.562;9.940;2023-08-08T02:25:09;4.00;;;1.40;;
54983;SDS011;40884;53.562;9.940;2023-08-08T02:26:09;4.40;;;1.20;;
54983;SDS011;40884;53.562;9.940;2023-08-08T02:27:11;3.93;;;1.17;;
54983;SDS011;40884;53.562;9.940;2023-08-08T02:28:11;3.80;;;1.50;;
54983;SDS011;40884;53.562;9.940;2023-08-08T02:29:11;1.97;;;1.30;;
54983;SDS011;40884;53.562;9.940;2023-08-08T02:30:11;2.90;;;1.10;;
54983;SDS011;40884;53.562;9.940;2023-08-08T02:31:12;2.93;;;1.27;;
54983;SDS011;40884;53.562;9.940;2023-08-08T02:32:12;3.20;;;1.33;;
54983;SDS011;40884;53.562;9.940;2023-08-08T02:33:12;2.73;;;1.00;;
54983;SDS011;40884;53.562;9.940;2023-08-08T02:34:12;2.67;;;1.40;;
54983;SDS011;40884;53.562;9.940;2023-08-08T02:35:12;5.17;;;1.23;;
54983;SDS011;40884;53.562;9.940;2023-08-08T02:36:12;4.80;;;1.60;;
54983;SDS011;40884;53.562;9.940;2023-08-08T02:37:13;3.43;;;1.20;;
54983;SDS011;40884;53.562;9.940;2023-08-08T02:38:14;4.83;;;1.30;;
54983;SDS011;40884;53.562;9.940;2023-08-08T02:39:14;2.40;;;1.40;;
54983;SDS011;40884;53.562;9.940;2023-08-08T02:40:14;3.33;;;1.33;;
54983;SDS011;40884;53.562;9.940;2023-08-08T02:41:15;4.13;;;1.50;;
54983;SDS011;40884;53.562;9.940;2023-08-08T02:42:16;2.47;;;1.30;;
54983;SDS011;40884;53.562;9.940;2023-08-08T02:43:16;3.60;;;1.30;;
54983;SDS011;40884;53.562;9.940;2023-08-08T02:44:17;2.87;;;1.33;;
54983;SDS011;40884;53.562;9.940;2023-08-08T02:45:17;2.53;;;1.30;;
54983;SDS011;40884;53.562;9.940;2023-08-08T02:46:17;3.87;;;1.20;;
54983;SDS011;40884;53.562;9.940;2023-08-08T02:47:17;4.30;;;1.53;;
54983;SDS011;40884;53.562;9.940;2023-08-08T02:48:18;4.03;;;1.70;;
54983;SDS011;40884;53.562;9.940;2023-08-08T02:49:18;2.37;;;1.30;;
54983;SDS011;40884;53.562;9.940;2023-08-08T02:50:18;4.83;;;1.83;;
54983;SDS011;40884;53.562;9.940;2023-08-08T02:51:19;5.30;;;1.83;;
54983;SDS011;40884;53.562;9.940;2023-08-08T02:52:19;3.33;;;1.83;;
54983;SDS011;40884;53.562;9.940;2023-08-08T02:53:19;3.93;;;1.13;;
54983;SDS011;40884;53.562;9.940;2023-08-08T02:54:21;3.67;;;1.40;;
54983;SDS011;40884;53.562;9.940;2023-08-08T02:55:22;5.03;;;1.50;;
54983;SDS011;40884;53.562;9.940;2023-08-08T02:56:24;4.20;;;1.40;;
54983;SDS011;40884;53.562;9.940;2023-08-08T02:57:26;5.30;;;1.60;;
54983;SDS011;40884;53.562;9.940;2023-08-08T02:58:28;3.60;;;1.33;;
54983;SDS011;40884;53.562;9.940;2023-08-08T02:59:29;3.30;;;1.40;;
54983;SDS011;40884;53.562;9.940;2023-08-08T03:00:30;4.63;;;1.30;;
54983;SDS011;40884;53.562;9.940;2023-08-08T03:01:31;3.33;;;1.27;;
54983;SDS011;40884;53.562;9.940;2023-08-08T03:02:32;3.73;;;1.27;;
54983;SDS011;40884;53.562;9.940;2023-08-08T03:03:32;2.47;;;1.20;;
54983;SDS011;40884;53.562;9.940;2023-08-08T03:04:33;3.00;;;1.03;;
54983;SDS011;40884;53.562;9.940;2023-08-08T03:05:33;3.23;;;1.50;;
54983;SDS011;40884;53.562;9.940;2023-08-08T03:06:34;1.93;;;1.30;;
54983;SDS011;40884;53.562;9.940;2023-08-08T03:07:35;2.50;;;1.43;;
54983;SDS011;40884;53.562;9.940;2023-08-08T03:08:35;2.27;;;1.20;;
54983;SDS011;40884;53.562;9.940;2023-08-08T03:09:35;6.87;;;2.10;;
54983;SDS011;40884;53.562;9.940;2023-08-08T03:10:35;3.43;;;1.30;;
54983;SDS011;40884;53.562;9.940;2023-08-08T03:11:36;3.10;;;1.23;;
54983;SDS011;40884;53.562;9.940;2023-08-08T03:12:36;4.20;;;1.43;;
54983;SDS011;40884;53.562;9.940;2023-08-08T03:13:36;3.70;;;1.70;;
54983;SDS011;40884;53.562;9.940;2023-08-08T03:14:36;2.43;;;1.40;;
54983;SDS011;40884;53.562;9.940;2023-08-08T03:15:37;4.77;;;1.50;;
54983;SDS011;40884;53.562;9.940;2023-08-08T03:16:39;6.20;;;1.50;;
54983;SDS011;40884;53.562;9.940;2023-08-08T03:17:41;5.30;;;1.40;;
54983;SDS011;40884;53.562;9.940;2023-08-08T03:18:41;2.53;;;1.40;;
54983;SDS011;40884;53.562;9.940;2023-08-08T03:19:41;4.63;;;1.50;;
54983;SDS011;40884;53.562;9.940;2023-08-08T03:20:42;4.30;;;1.77;;
54983;SDS011;40884;53.562;9.940;2023-08-08T03:21:43;2.87;;;1.17;;
54983;SDS011;40884;53.562;9.940;2023-08-08T03:22:43;3.27;;;1.40;;
54983;SDS011;40884;53.562;9.940;2023-08-08T03:23:44;3.03;;;1.20;;
54983;SDS011;40884;53.562;9.940;2023-08-08T03:24:44;3.73;;;1.50;;
54983;SDS011;40884;53.562;9.940;2023-08-08T03:25:45;3.27;;;1.40;;
54983;SDS011;40884;53.562;9.940;2023-08-08T03:26:46;2.77;;;1.30;;
54983;SDS011;40884;53.562;9.940;2023-08-08T03:27:47;3.00;;;1.57;;
54983;SDS011;40884;53.562;9.940;2023-08-08T03:28:49;3.33;;;1.60;;
54983;SDS011;40884;53.562;9.940;2023-08-08T03:29:49;3.50;;;1.40;;
54983;SDS011;40884;53.562;9.940;2023-08-08T03:30:50;4.90;;;1.73;;
54983;SDS011;40884;53.562;9.940;2023-08-08T03:31:51;4.30;;;1.60;;
54983;SDS011;40884;53.562;9.940;2023-08-08T03:32:52;3.27;;;1.60;;
54983;SDS011;40884;53.562;9.940;2023-08-08T03:33:52;2.37;;;1.40;;
54983;SDS011;40884;53.562;9.940;2023-08-08T03:34:52;4.33;;;1.80;;
54983;SDS011;40884;53.562;9.940;2023-08-08T03:35:52;4.33;;;1.40;;
54983;SDS011;40884;53.562;9.940;2023-08-08T03:36:52;3.53;;;1.40;;
54983;SDS011;40884;53.562;9.940;2023-08-08T03:37:53;4.77;;;1.70;;
54983;SDS011;40884;53.562;9.940;2023-08-08T03:38:53;2.23;;;1.30;;
54983;SDS011;40884;53.562;9.940;2023-08-08T03:39:53;2.33;;;1.33;;
54983;SDS011;40884;53.562;9.940;2023-08-08T03:40:53;3.30;;;1.40;;
54983;SDS011;40884;53.562;9.940;2023-08-08T03:41:54;2.83;;;1.20;;
54983;SDS011;40884;53.562;9.940;2023-08-08T03:42:54;3.57;;;1.33;;
54983;SDS011;40884;53.562;9.940;2023-08-08T03:43:54;3.70;;;1.60;;
54983;SDS011;40884;53.562;9.940;2023-08-08T03:44:54;3.70;;;1.50;;
54983;SDS011;40884;53.562;9.940;2023-08-08T03:45:54;3.73;;;1.63;;
54983;SDS011;40884;53.562;9.940;2023-08-08T03:46:54;2.90;;;1.23;;
54983;SDS011;40884;53.562;9.940;2023-08-08T03:47:54;2.90;;;1.33;;
54983;SDS011;40884;53.562;9.940;2023-08-08T03:48:54;4.23;;;1.30;;
54983;SDS011;40884;53.562;9.940;2023-08-08T03:49:55;2.43;;;1.20;;
54983;SDS011;40884;53.562;9.940;2023-08-08T03:50:55;3.10;;;1.37;;
54983;SDS011;40884;53.562;9.940;2023-08-08T03:51:55;5.53;;;1.50;;
54983;SDS011;40884;53.562;9.940;2023-08-08T03:52:56;3.20;;;1.23;;
54983;SDS011;40884;53.562;9.940;2023-08-08T03:53:57;3.27;;;1.80;;
54983;SDS011;40884;53.562;9.940;2023-08-08T03:54:57;2.13;;;1.50;;
54983;SDS011;40884;53.562;9.940;2023-08-08T03:55:57;3.43;;;1.60;;
54983;SDS011;40884;53.562;9.940;2023-08-08T03:56:57;4.03;;;1.60;;
54983;SDS011;40884;53.562;9.940;2023-08-08T03:57:58;4.37;;;1.60;;
54983;SDS011;40884;53.562;9.940;2023-08-08T03:58:58;2.50;;;1.30;;
54983;SDS011;40884;53.562;9.940;2023-08-08T03:59:58;2.63;;;1.50;;
54983;SDS011;40884;53.562;9.940;2023-08-08T04:00:59;2.17;;;1.20;;
54983;SDS011;40884;53.562;9.940;2023-08-08T04:01:59;4.83;;;1.37;;
54983;SDS011;40884;53.562;9.940;2023-08-08T04:03:00;3.60;;;1.30;;
54983;SDS011;40884;53.562;9.940;2023-08-08T04:04:00;2.90;;;1.40;;
54983;SDS011;40884;53.562;9.940;2023-08-08T04:05:00;2.73;;;1.47;;
54983;SDS011;40884;53.562;9.940;2023-08-08T04:06:01;3.83;;;1.40;;
54983;SDS011;40884;53.562;9.940;2023-08-08T04:07:01;2.60;;;1.20;;
54983;SDS011;40884;53.562;9.940;2023-08-08T04:08:02;6.67;;;1.60;;
54983;SDS011;40884;53.562;9.940;2023-08-08T04:09:02;4.43;;;1.60;;
54983;SDS011;40884;53.562;9.940;2023-08-08T04:10:02;2.73;;;1.30;;
54983;SDS011;40884;53.562;9.940;2023-08-08T04:11:03;3.00;;;1.30;;
54983;SDS011;40884;53.562;9.940;2023-08-08T04:12:03;4.07;;;1.43;;
54983;SDS011;40884;53.562;9.940;2023-08-08T04:13:03;2.63;;;1.53;;
54983;SDS011;40884;53.562;9.940;2023-08-08T04:14:03;3.47;;;1.57;;
54983;SDS011;40884;53.562;9.940;2023-08-08T04:15:03;4.13;;;1.50;;
54983;SDS011;40884;53.562;9.940;2023-08-08T04:16:04;4.23;;;1.33;;
54983;SDS011;40884;53.562;9.940;2023-08-08T04:17:04;2.07;;;1.17;;
54983;SDS011;40884;53.562;9.940;2023-08-08T04:18:04;4.77;;;1.40;;
54983;SDS011;40884;53.562;9.940;2023-08-08T04:19:04;2.43;;;1.33;;
54983;SDS011;40884;53.562;9.940;2023-08-08T04:20:05;1.93;;;1.20;;
54983;SDS011;40884;53.562;9.940;2023-08-08T04:21:05;4.83;;;1.43;;
54983;SDS011;40884;53.562;9.940;2023-08-08T04:22:05;3.00;;;1.30;;
54983;SDS011;40884;53.562;9.940;2023-08-08T04:23:05;4.43;;;1.33;;
54983;SDS011;40884;53.562;9.940;2023-08-08T04:24:05;1.70;;;1.20;;
54983;SDS011;40884;53.562;9.940;2023-08-08T04:25:06;1.93;;;1.30;;
54983;SDS011;40884;53.562;9.940;2023-08-08T04:26:06;4.57;;;1.70;;
54983;SDS011;40884;53.562;9.940;2023-08-08T04:27:06;4.07;;;1.70;;
54983;SDS011;40884;53.562;9.940;2023-08-08T04:28:06;2.87;;;1.27;;
54983;SDS011;40884;53.562;9.940;2023-08-08T04:29:06;3.27;;;1.43;;
54983;SDS011;40884;53.562;9.940;2023-08-08T04:30:07;3.57;;;1.40;;
54983;SDS011;40884;53.562;9.940;2023-08-08T04:31:07;1.70;;;1.10;;
54983;SDS011;40884;53.562;9.940;2023-08-08T04:32:07;2.80;;;1.20;;
54983;SDS011;40884;53.562;9.940;2023-08-08T04:33:07;3.30;;;1.33;;
54983;SDS011;40884;53.562;9.940;2023-08-08T04:34:07;3.30;;;1.33;;
54983;SDS011;40884;53.562;9.940;2023-08-08T04:35:07;4.77;;;1.60;;
54983;SDS011;40884;53.562;9.940;2023-08-08T04:36:08;3.47;;;1.20;;
54983;SDS011;40884;53.562;9.940;2023-08-08T04:37:08;1.80;;;1.23;;
54983;SDS011;40884;53.562;9.940;2023-08-08T04:38:08;2.30;;;1.10;;
54983;SDS011;40884;53.562;9.940;2023-08-08T04:39:08;4.37;;;1.30;;
54983;SDS011;40884;53.562;9.940;2023-08-08T04:40:09;3.93;;;1.33;;
54983;SDS011;40884;53.562;9.940;2023-08-08T04:41:09;3.33;;;1.20;;
54983;SDS011;40884;53.562;9.940;2023-08-08T04:42:09;2.50;;;1.20;;
54983;SDS011;40884;53.562;9.940;2023-08-08T04:43:09;2.17;;;1.43;;
54983;SDS011;40884;53.562;9.940;2023-08-08T04:44:09;4.97;;;1.40;;
54983;SDS011;40884;53.562;9.940;2023-08-08T04:45:09;2.87;;;1.30;;
54983;SDS011;40884;53.562;9.940;2023-08-08T04:46:09;1.97;;;1.20;;
54983;SDS011;40884;53.562;9.940;2023-08-08T04:47:10;3.40;;;1.53;;
54983;SDS011;40884;53.562;9.940;2023-08-08T04:48:10;2.97;;;1.30;;
54983;SDS011;40884;53.562;9.940;2023-08-08T04:49:10;2.17;;;1.30;;
54983;SDS011;40884;53.562;9.940;2023-08-08T04:50:10;3.43;;;1.50;;
54983;SDS011;40884;53.562;9.940;2023-08-08T04:51:10;2.07;;;1.30;;
54983;SDS011;40884;53.562;9.940;2023-08-08T04:52:10;6.00;;;1.23;;
54983;SDS011;40884;53.562;9.940;2023-08-08T04:53:10;1.47;;;1.00;;
54983;SDS011;40884;53.562;9.940;2023-08-08T04:54:10;2.53;;;1.30;;
54983;SDS011;40884;53.562;9.940;2023-08-08T04:55:11;3.77;;;1.40;;
54983;SDS011;40884;53.562;9.940;2023-08-08T04:56:11;2.90;;;1.10;;
54983;SDS011;40884;53.562;9.940;2023-08-08T04:57:11;1.50;;;1.00;;
54983;SDS011;40884;53.562;9.940;2023-08-08T04:58:11;1.90;;;1.10;;
54983;SDS011;40884;53.562;9.940;2023-08-08T04:59:11;4.63;;;1.30;;
54983;SDS011;40884;53.562;9.940;2023-08-08T05:00:11;3.00;;;1.40;;
54983;SDS011;40884;53.562;9.940;2023-08-08T05:01:12;1.70;;;1.10;;
54983;SDS011;40884;53.562;9.940;2023-08-08T05:02:12;5.73;;;1.30;;
54983;SDS011;40884;53.562;9.940;2023-08-08T05:03:12;5.17;;;1.40;;
54983;SDS011;40884;53.562;9.940;2023-08-08T05:04:12;2.40;;;1.40;;
54983;SDS011;40884;53.562;9.940;2023-08-08T05:05:12;3.73;;;1.03;;
54983;SDS011;40884;53.562;9.940;2023-08-08T05:06:12;3.07;;;1.20;;
54983;SDS011;40884;53.562;9.940;2023-08-08T05:07:12;3.30;;;1.20;;
54983;SDS011;40884;53.562;9.940;2023-08-08T05:08:13;3.13;;;1.20;;
54983;SDS011;40884;53.562;9.940;2023-08-08T05:09:13;2.83;;;1.20;;
54983;SDS011;40884;53.562;9.940;2023-08-08T05:10:13;1.80;;;1.30;;
54983;SDS011;40884;53.562;9.940;2023-08-08T05:11:13;1.87;;;1.00;;
54983;SDS011;40884;53.562;9.940;2023-08-08T05:12:13;3.33;;;1.40;;
54983;SDS011;40884;53.562;9.940;2023-08-08T05:13:13;3.67;;;1.33;;
54983;SDS011;40884;53.562;9.940;2023-08-08T05:14:14;2.40;;;1.23;;
54983;SDS011;40884;53.562;9.940;2023-08-08T05:15:14;2.60;;;1.30;;
54983;SDS011;40884;53.562;9.940;2023-08-08T05:16:14;4.40;;;1.20;;
54983;SDS011;40884;53.562;9.940;2023-08-08T05:17:14;1.93;;;1.27;;
54983;SDS011;40884;53.562;9.940;2023-08-08T05:18:14;2.70;;;1.20;;
54983;SDS011;40884;53.562;9.940;2023-08-08T05:19:14;3.20;;;1.20;;
54983;SDS011;40884;53.562;9.940;2023-08-08T05:20:14;1.93;;;1.23;;
54983;SDS011;40884;53.562;9.940;2023-08-08T05:21:15;2.70;;;1.43;;
54983;SDS011;40884;53.562;9.940;2023-08-08T05:22:15;4.20;;;1.43;;
54983;SDS011;40884;53.562;9.940;2023-08-08T05:23:15;2.77;;;1.30;;
54983;SDS011;40884;53.562;9.940;2023-08-08T05:24:15;2.77;;;1.37;;
54983;SDS011;40884;53.562;9.940;2023-08-08T05:25:15;1.73;;;1.20;;
54983;SDS011;40884;53.562;9.940;2023-08-08T05:26:15;2.50;;;1.23;;
54983;SDS011;40884;53.562;9.940;2023-08-08T05:27:15;4.43;;;1.13;;
54983;SDS011;40884;53.562;9.940;2023-08-08T05:28:15;2.53;;;1.10;;
54983;SDS011;40884;53.562;9.940;2023-08-08T05:29:16;2.90;;;1.30;;
54983;SDS011;40884;53.562;9.940;2023-08-08T05:30:16;4.57;;;1.50;;
54983;SDS011;40884;53.562;9.940;2023-08-08T05:31:16;3.83;;;1.20;;
54983;SDS011;40884;53.562;9.940;2023-08-08T05:32:16;2.27;;;0.97;;
54983;SDS011;40884;53.562;9.940;2023-08-08T05:33:16;1.77;;;0.97;;
54983;SDS011;40884;53.562;9.940;2023-08-08T05:34:16;3.60;;;0.80;;
54983;SDS011;40884;53.562;9.940;2023-08-08T05:35:16;3.80;;;1.30;;
54983;SDS011;40884;53.562;9.940;2023-08-08T05:36:17;4.07;;;1.30;;
54983;SDS011;40884;53.562;9.940;2023-08-08T05:37:17;3.07;;;1.20;;
54983;SDS011;40884;53.562;9.940;2023-08-08T05:38:17;3.70;;;1.50;;
54983;SDS011;40884;53.562;9.940;2023-08-08T05:39:17;5.17;;;1.20;;
54983;SDS011;40884;53.562;9.940;2023-08-08T05:40:17;4.50;;;1.30;;
54983;SDS011;40884;53.562;9.940;2023-08-08T05:41:17;5.00;;;1.40;;
54983;SDS011;40884;53.562;9.940;2023-08-08T05:42:17;3.83;;;1.10;;
54983;SDS011;40884;53.562;9.940;2023-08-08T05:43:18;3.47;;;1.10;;
54983;SDS011;40884;53.562;9.940;2023-08-08T05:44:18;2.93;;;1.00;;
54983;SDS011;40884;53.562;9.940;2023-08-08T05:45:18;2.40;;;0.83;;
54983;SDS011;40884;53.562;9.940;2023-08-08T05:46:18;2.27;;;1.10;;
54983;SDS011;40884;53.562;9.940;2023-08-08T05:47:18;3.17;;;1.20;;
54983;SDS011;40884;53.562;9.940;2023-08-08T05:48:18;2.60;;;1.30;;
54983;SDS011;40884;53.562;9.940;2023-08-08T05:49:19;3.40;;;1.27;;
54983;SDS011;40884;53.562;9.940;2023-08-08T05:50:19;5.00;;;1.40;;
54983;SDS011;40884;53.562;9.940;2023-08-08T05:51:19;2.60;;;1.13;;
54983;SDS011;40884;53.562;9.940;2023-08-08T05:52:19;4.43;;;1.07;;
54983;SDS011;40884;53.562;9.940;2023-08-08T05:53:20;3.10;;;1.10;;
54983;SDS011;40884;53.562;9.940;2023-08-08T05:54:20;3.10;;;1.07;;
54983;SDS011;40884;53.562;9.940;2023-08-08T05:55:20;4.97;;;1.20;;
54983;SDS011;40884;53.562;9.940;2023-08-08T05:56:20;2.47;;;1.07;;
54983;SDS011;40884;53.562;9.940;2023-08-08T05:57:20;3.00;;;1.10;;
54983;SDS011;40884;53.562;9.940;2023-08-08T05:58:20;4.90;;;1.73;;
54983;SDS011;40884;53.562;9.940;2023-08-08T05:59:20;4.30;;;1.13;;
54983;SDS011;40884;53.562;9.940;2023-08-08T06:00:21;2.57;;;1.10;;
54983;SDS011;40884;53.562;9.940;2023-08-08T06:01:21;3.20;;;1.00;;
54983;SDS011;40884;53.562;9.940;2023-08-08T06:02:21;2.40;;;1.10;;
54983;SDS011;40884;53.562;9.940;2023-08-08T06:03:21;2.27;;;1.10;;
54983;SDS011;40884;53.562;9.940;2023-08-08T06:04:21;4.43;;;1.20;;
54983;SDS011;40884;53.562;9.940;2023-08-08T06:05:22;2.43;;;1.30;;
54983;SDS011;40884;53.562;9.940;2023-08-08T06:06:22;2.47;;;1.37;;
54983;SDS011;40884;53.562;9.940;2023-08-08T06:07:22;3.67;;;1.40;;